MSC Turchia — A8IL9 — position and weather

sailwx.info

Track history (hours):
 
Tides and Currents Weather Stations Pressure Air Temp Water Temp Dewpoint Dewpoint Depression Visibility Wind Speed Wind Dir Waves Ship Positions

MSC Turchia

Last reported at 2014-Aug-21 07:33 UTC. Time now 2014-Aug-21 08:19 UTC.
Position N 53°32' E 009°55'.

Length 276 m; beam 40 m; draft 14 m.

Type: Ship (hazmat cat D). MMSI: 636091212.

Date/timePositionNaut miles runAvg speedWind from/ knotsBaromVisibWave heightAir tempDewpointWater temp
2014-Aug-21 07:33N 53°32' E 009°55'0 0.0
2014-Aug-21 06:33N 53°32' E 009°55'0 0.1
2014-Aug-21 05:33N 53°32' E 009°55'3 3.0
2014-Aug-21 04:33N 53°33' E 009°50'8 7.9
2014-Aug-21 03:33N 53°35' E 009°37'8 8.3
2014-Aug-21 02:33N 53°42' E 009°30'1212.0
2014-Aug-21 01:33N 53°52' E 009°18'9 9.3
2014-Aug-21 00:33N 53°52' E 009°02'1212.1
2014-Aug-20 23:33N 53°54' E 008°42'1413.8
2014-Aug-20 22:33N 53°59' E 008°20'1010.2
2014-Aug-20 21:33N 53°59' E 008°03'8 7.7
2014-Aug-20 20:33N 53°57' E 007°50'3912.3
2014-Aug-20 17:23N 53°48' E 006°46'1112.8
2014-Aug-20 16:33N 53°46' E 006°28'1312.8
2014-Aug-20 15:33N 53°42' E 006°07'1312.8
2014-Aug-20 14:33N 53°38' E 005°47'1414.2
2014-Aug-20 13:34N 53°33' E 005°24'1414.5
2014-Aug-20 12:34N 53°29' E 005°01'1413.7
2014-Aug-20 11:34N 53°21' E 004°42'1414.1
2014-Aug-20 10:34N 53°09' E 004°30'1313.4
2014-Aug-20 09:34N 52°58' E 004°18'1313.3
2014-Aug-20 08:34N 52°46' E 004°08'1313.4
2014-Aug-20 07:33N 52°36' E 003°53'1313.1
2014-Aug-20 06:33N 52°27' E 003°38'5312.6
2014-Aug-20 02:22N 51°48' E 002°39'1113.1
2014-Aug-20 01:32N 51°40' E 002°28'1313.3
2014-Aug-20 00:33N 51°30' E 002°14'1313.1
2014-Aug-19 23:33N 51°18' E 002°07'1313.2
2014-Aug-19 22:34N 51°09' E 001°51'1413.8
2014-Aug-19 21:34N 51°00' E 001°35'4213.9
2014-Aug-19 18:33N 50°30' E 000°49'1814.3
2014-Aug-19 17:19N 50°25' E 000°23'  
2014-Aug-16 23:31N 38°00' W 009°39'1813.9
2014-Aug-16 22:15N 37°43' W 009°33'1113.8
2014-Aug-16 21:27N 37°32' W 009°30'1213.9
2014-Aug-16 20:33N 37°20' W 009°27'1414.2
2014-Aug-16 19:32N 37°06' W 009°23'1414.1
2014-Aug-16 18:34N 36°53' W 009°19'1514.2
2014-Aug-16 17:31N 36°43' W 009°05'1313.9
2014-Aug-16 16:33N 36°39' W 008°49'1413.9
2014-Aug-16 15:33N 36°36' W 008°32'1414.1
2014-Aug-16 14:33N 36°31' W 008°15'1414.3
2014-Aug-16 13:34N 36°26' W 007°59'1414.0
2014-Aug-16 12:34N 36°22' W 007°42'33413.2
2014-Aug-15 11:22N 36°44' W 000°47'1414.0
2014-Aug-15 10:23N 36°47' W 000°31'42013.9
2014-Aug-14 04:07N 38°36' E 008°02'813.6
2014-Aug-14 03:33N 38°38' E 008°12'1513.7
2014-Aug-14 02:25N 38°42' E 008°31'1213.2
2014-Aug-14 01:33N 38°45' E 008°45'1313.0
2014-Aug-14 00:32N 38°51' E 008°59'1413.7
2014-Aug-13 23:33N 39°03' E 009°08'10 9.9
2014-Aug-13 22:33N 39°13' E 009°05'0 0.2
2014-Aug-13 21:31N 39°13' E 009°04'0 0.0
2014-Aug-13 20:31N 39°13' E 009°04'0 0.0
2014-Aug-13 19:31N 39°13' E 009°04'0 0.0
2014-Aug-13 18:31N 39°13' E 009°04'0 0.0
2014-Aug-13 17:31N 39°13' E 009°04'0 0.0
2014-Aug-13 16:31N 39°13' E 009°04'0 0.0
2014-Aug-13 15:31N 39°13' E 009°04'0 0.0
2014-Aug-13 14:31N 39°13' E 009°04'0 0.0
2014-Aug-13 13:31N 39°13' E 009°04'0 0.0
2014-Aug-13 12:31N 39°13' E 009°04'0 0.0
2014-Aug-13 11:31N 39°13' E 009°04'0 0.0
2014-Aug-13 10:31N 39°13' E 009°04'0 0.0
2014-Aug-13 09:31N 39°13' E 009°04'0 0.0
2014-Aug-13 08:31N 39°13' E 009°04'0 0.0
2014-Aug-13 07:31N 39°13' E 009°04'0 0.2
2014-Aug-13 06:33N 39°13' E 009°04'7 7.1
2014-Aug-13 05:33N 39°06' E 009°07'1 1.1
2014-Aug-13 04:32N 39°05' E 009°08'1 0.9
2014-Aug-13 03:32N 39°04' E 009°09'5 4.8
2014-Aug-13 02:33N 39°01' E 009°13'1413.6
2014-Aug-13 01:34N 38°51' E 009°25'1313.2
2014-Aug-13 00:33N 38°41' E 009°36'1313.1
2014-Aug-12 23:33N 38°31' E 009°47'1313.2
2014-Aug-12 22:33N 38°21' E 009°58'1313.2
2014-Aug-12 21:32N 38°11' E 010°09'1313.1
2014-Aug-12 20:33N 38°01' E 010°20'1312.9
2014-Aug-12 19:33N 37°51' E 010°30'1313.0
2014-Aug-12 18:33N 37°42' E 010°41'1313.0
2014-Aug-12 17:34N 37°35' E 010°55'1312.9
2014-Aug-12 16:34N 37°29' E 011°10'1312.7
2014-Aug-12 15:33N 37°23' E 011°24'1312.9
2014-Aug-12 14:33N 37°17' E 011°38'1313.0
2014-Aug-12 13:33N 37°10' E 011°52'3912.9
2014-Aug-12 10:32N 36°57' E 012°38'1312.7
2014-Aug-12 09:30N 36°54' E 012°54'1212.7
2014-Aug-12 08:33N 36°50' E 013°08'  
Track history (hours):
 
Tides and Currents Weather Stations Pressure Air Temp Water Temp Dewpoint Dewpoint Depression Visibility Wind Speed Wind Dir Waves Ship Positions

MSC Turchia

Last reported at 2014-Aug-21 07:33 UTC. Time now 2014-Aug-21 08:19 UTC.
Position N 53°32' E 009°55'.

Length 276 m; beam 40 m; draft 14 m.

Type: Ship (hazmat cat D). MMSI: 636091212.

Date/timePositionNaut miles runAvg speedWind from/ knotsBaromVisibWave heightAir tempDewpointWater temp
2014-Aug-21 07:33N 53°32' E 009°55'0 0.0
2014-Aug-21 06:33N 53°32' E 009°55'0 0.1
2014-Aug-21 05:33N 53°32' E 009°55'3 3.0
2014-Aug-21 04:33N 53°33' E 009°50'8 7.9
2014-Aug-21 03:33N 53°35' E 009°37'8 8.3
2014-Aug-21 02:33N 53°42' E 009°30'1212.0
2014-Aug-21 01:33N 53°52' E 009°18'9 9.3
2014-Aug-21 00:33N 53°52' E 009°02'1212.1
2014-Aug-20 23:33N 53°54' E 008°42'1413.8
2014-Aug-20 22:33N 53°59' E 008°20'1010.2
2014-Aug-20 21:33N 53°59' E 008°03'8 7.7
2014-Aug-20 20:33N 53°57' E 007°50'3912.3
2014-Aug-20 17:23N 53°48' E 006°46'1112.8
2014-Aug-20 16:33N 53°46' E 006°28'1312.8
2014-Aug-20 15:33N 53°42' E 006°07'1312.8
2014-Aug-20 14:33N 53°38' E 005°47'1414.2
2014-Aug-20 13:34N 53°33' E 005°24'1414.5
2014-Aug-20 12:34N 53°29' E 005°01'1413.7
2014-Aug-20 11:34N 53°21' E 004°42'1414.1
2014-Aug-20 10:34N 53°09' E 004°30'1313.4
2014-Aug-20 09:34N 52°58' E 004°18'1313.3
2014-Aug-20 08:34N 52°46' E 004°08'1313.4
2014-Aug-20 07:33N 52°36' E 003°53'1313.1
2014-Aug-20 06:33N 52°27' E 003°38'5312.6
2014-Aug-20 02:22N 51°48' E 002°39'1113.1
2014-Aug-20 01:32N 51°40' E 002°28'1313.3
2014-Aug-20 00:33N 51°30' E 002°14'1313.1
2014-Aug-19 23:33N 51°18' E 002°07'1313.2
2014-Aug-19 22:34N 51°09' E 001°51'1413.8
2014-Aug-19 21:34N 51°00' E 001°35'4213.9
2014-Aug-19 18:33N 50°30' E 000°49'1814.3
2014-Aug-19 17:19N 50°25' E 000°23'  
2014-Aug-16 23:31N 38°00' W 009°39'1813.9
2014-Aug-16 22:15N 37°43' W 009°33'1113.8
2014-Aug-16 21:27N 37°32' W 009°30'1213.9
2014-Aug-16 20:33N 37°20' W 009°27'1414.2
2014-Aug-16 19:32N 37°06' W 009°23'1414.1
2014-Aug-16 18:34N 36°53' W 009°19'1514.2
2014-Aug-16 17:31N 36°43' W 009°05'1313.9
2014-Aug-16 16:33N 36°39' W 008°49'1413.9
2014-Aug-16 15:33N 36°36' W 008°32'1414.1
2014-Aug-16 14:33N 36°31' W 008°15'1414.3
2014-Aug-16 13:34N 36°26' W 007°59'1414.0
2014-Aug-16 12:34N 36°22' W 007°42'33413.2
2014-Aug-15 11:22N 36°44' W 000°47'1414.0
2014-Aug-15 10:23N 36°47' W 000°31'42013.9
2014-Aug-14 04:07N 38°36' E 008°02'813.6
2014-Aug-14 03:33N 38°38' E 008°12'1513.7
2014-Aug-14 02:25N 38°42' E 008°31'1213.2
2014-Aug-14 01:33N 38°45' E 008°45'1313.0
2014-Aug-14 00:32N 38°51' E 008°59'1413.7
2014-Aug-13 23:33N 39°03' E 009°08'10 9.9
2014-Aug-13 22:33N 39°13' E 009°05'0 0.2
2014-Aug-13 21:31N 39°13' E 009°04'0 0.0
2014-Aug-13 20:31N 39°13' E 009°04'0 0.0
2014-Aug-13 19:31N 39°13' E 009°04'0 0.0
2014-Aug-13 18:31N 39°13' E 009°04'0 0.0
2014-Aug-13 17:31N 39°13' E 009°04'0 0.0
2014-Aug-13 16:31N 39°13' E 009°04'0 0.0
2014-Aug-13 15:31N 39°13' E 009°04'0 0.0
2014-Aug-13 14:31N 39°13' E 009°04'0 0.0
2014-Aug-13 13:31N 39°13' E 009°04'0 0.0
2014-Aug-13 12:31N 39°13' E 009°04'0 0.0
2014-Aug-13 11:31N 39°13' E 009°04'0 0.0
2014-Aug-13 10:31N 39°13' E 009°04'0 0.0
2014-Aug-13 09:31N 39°13' E 009°04'0 0.0
2014-Aug-13 08:31N 39°13' E 009°04'0 0.0
2014-Aug-13 07:31N 39°13' E 009°04'0 0.2
2014-Aug-13 06:33N 39°13' E 009°04'7 7.1
2014-Aug-13 05:33N 39°06' E 009°07'1 1.1
2014-Aug-13 04:32N 39°05' E 009°08'1 0.9
2014-Aug-13 03:32N 39°04' E 009°09'5 4.8
2014-Aug-13 02:33N 39°01' E 009°13'1413.6
2014-Aug-13 01:34N 38°51' E 009°25'1313.2
2014-Aug-13 00:33N 38°41' E 009°36'1313.1
2014-Aug-12 23:33N 38°31' E 009°47'1313.2
2014-Aug-12 22:33N 38°21' E 009°58'1313.2
2014-Aug-12 21:32N 38°11' E 010°09'1313.1
2014-Aug-12 20:33N 38°01' E 010°20'1312.9
2014-Aug-12 19:33N 37°51' E 010°30'1313.0
2014-Aug-12 18:33N 37°42' E 010°41'1313.0
2014-Aug-12 17:34N 37°35' E 010°55'1312.9
2014-Aug-12 16:34N 37°29' E 011°10'1312.7
2014-Aug-12 15:33N 37°23' E 011°24'1312.9
2014-Aug-12 14:33N 37°17' E 011°38'1313.0
2014-Aug-12 13:33N 37°10' E 011°52'3912.9
2014-Aug-12 10:32N 36°57' E 012°38'1312.7
2014-Aug-12 09:30N 36°54' E 012°54'1212.7
2014-Aug-12 08:33N 36°50' E 013°08'  

Dump ship's entire track history